sensor_id;sensor_type;location;lat;lon;timestamp;temperature;humidity
45339;DHT22;31071;51.478;5.710;2022-07-21T00:01:20;19.40;99.90
45339;DHT22;31071;51.478;5.710;2022-07-21T00:03:46;19.30;99.90
45339;DHT22;31071;51.478;5.710;2022-07-21T00:06:12;19.40;99.90
45339;DHT22;31071;51.478;5.710;2022-07-21T00:08:40;19.40;99.90
45339;DHT22;31071;51.478;5.710;2022-07-21T00:11:06;19.40;99.90
45339;DHT22;31071;51.478;5.710;2022-07-21T00:13:32;19.30;99.90
45339;DHT22;31071;51.478;5.710;2022-07-21T00:15:57;19.30;99.90
45339;DHT22;31071;51.478;5.710;2022-07-21T00:18:23;19.30;99.90
45339;DHT22;31071;51.478;5.710;2022-07-21T00:20:49;19.20;99.90
45339;DHT22;31071;51.478;5.710;2022-07-21T00:23:16;19.20;99.90
45339;DHT22;31071;51.478;5.710;2022-07-21T00:25:42;19.20;99.90
45339;DHT22;31071;51.478;5.710;2022-07-21T00:28:08;19.20;99.90
45339;DHT22;31071;51.478;5.710;2022-07-21T00:30:34;19.20;99.90
45339;DHT22;31071;51.478;5.710;2022-07-21T00:32:59;19.10;99.90
45339;DHT22;31071;51.478;5.710;2022-07-21T00:35:26;19.20;99.90
45339;DHT22;31071;51.478;5.710;2022-07-21T00:37:51;19.20;99.90
45339;DHT22;31071;51.478;5.710;2022-07-21T00:40:18;19.20;99.90
45339;DHT22;31071;51.478;5.710;2022-07-21T00:42:44;19.20;99.90
45339;DHT22;31071;51.478;5.710;2022-07-21T00:45:11;19.10;99.90
45339;DHT22;31071;51.478;5.710;2022-07-21T00:47:37;19.10;99.90
45339;DHT22;31071;51.478;5.710;2022-07-21T00:50:10;19.10;99.90
45339;DHT22;31071;51.478;5.710;2022-07-21T00:52:36;19.10;99.90
45339;DHT22;31071;51.478;5.710;2022-07-21T00:55:02;19.10;99.90
45339;DHT22;31071;51.478;5.710;2022-07-21T00:57:28;19.00;99.90
45339;DHT22;31071;51.478;5.710;2022-07-21T00:59:54;19.00;99.90
45339;DHT22;31071;51.478;5.710;2022-07-21T01:02:19;19.00;99.90
45339;DHT22;31071;51.478;5.710;2022-07-21T01:04:45;19.00;99.90
45339;DHT22;31071;51.478;5.710;2022-07-21T01:07:10;19.00;99.90
45339;DHT22;31071;51.478;5.710;2022-07-21T01:09:36;19.00;99.90
45339;DHT22;31071;51.478;5.710;2022-07-21T01:12:02;19.00;99.90
45339;DHT22;31071;51.478;5.710;2022-07-21T01:14:28;19.00;99.90
45339;DHT22;31071;51.478;5.710;2022-07-21T01:16:54;19.00;99.90
45339;DHT22;31071;51.478;5.710;2022-07-21T01:19:20;18.90;99.90
45339;DHT22;31071;51.478;5.710;2022-07-21T01:21:47;18.90;99.90
45339;DHT22;31071;51.478;5.710;2022-07-21T01:24:13;18.90;99.90
45339;DHT22;31071;51.478;5.710;2022-07-21T01:26:47;18.80;99.90
45339;DHT22;31071;51.478;5.710;2022-07-21T01:29:14;18.70;99.90
45339;DHT22;31071;51.478;5.710;2022-07-21T01:31:41;18.70;99.90
45339;DHT22;31071;51.478;5.710;2022-07-21T01:34:08;18.80;99.90
45339;DHT22;31071;51.478;5.710;2022-07-21T01:36:34;18.80;99.90
45339;DHT22;31071;51.478;5.710;2022-07-21T01:38:59;18.80;99.90
45339;DHT22;31071;51.478;5.710;2022-07-21T01:41:44;18.80;99.90
45339;DHT22;31071;51.478;5.710;2022-07-21T01:44:11;18.90;99.90
45339;DHT22;31071;51.478;5.710;2022-07-21T01:46:39;18.90;99.90
45339;DHT22;31071;51.478;5.710;2022-07-21T01:49:06;18.90;99.90
45339;DHT22;31071;51.478;5.710;2022-07-21T01:51:32;18.90;99.90
45339;DHT22;31071;51.478;5.710;2022-07-21T01:53:59;18.90;99.90
45339;DHT22;31071;51.478;5.710;2022-07-21T01:56:26;18.90;99.90
45339;DHT22;31071;51.478;5.710;2022-07-21T01:58:53;18.90;99.90
45339;DHT22;31071;51.478;5.710;2022-07-21T02:01:21;18.90;99.90
45339;DHT22;31071;51.478;5.710;2022-07-21T02:03:47;18.80;99.90
45339;DHT22;31071;51.478;5.710;2022-07-21T02:06:14;18.90;99.90
45339;DHT22;31071;51.478;5.710;2022-07-21T02:08:46;18.90;99.90
45339;DHT22;31071;51.478;5.710;2022-07-21T02:11:13;18.90;99.90
45339;DHT22;31071;51.478;5.710;2022-07-21T02:13:40;18.80;99.90
45339;DHT22;31071;51.478;5.710;2022-07-21T02:16:06;18.80;99.90
45339;DHT22;31071;51.478;5.710;2022-07-21T02:18:32;18.80;99.90
45339;DHT22;31071;51.478;5.710;2022-07-21T02:20:58;18.80;99.90
45339;DHT22;31071;51.478;5.710;2022-07-21T02:23:25;18.80;99.90
45339;DHT22;31071;51.478;5.710;2022-07-21T02:25:52;18.70;99.90
45339;DHT22;31071;51.478;5.710;2022-07-21T02:28:21;18.80;99.90
45339;DHT22;31071;51.478;5.710;2022-07-21T02:30:47;18.80;99.90
45339;DHT22;31071;51.478;5.710;2022-07-21T02:33:13;18.80;99.90
45339;DHT22;31071;51.478;5.710;2022-07-21T02:35:39;18.80;99.90
45339;DHT22;31071;51.478;5.710;2022-07-21T02:38:05;18.80;99.90
45339;DHT22;31071;51.478;5.710;2022-07-21T02:40:31;18.80;99.90
45339;DHT22;31071;51.478;5.710;2022-07-21T02:42:57;18.80;99.90
45339;DHT22;31071;51.478;5.710;2022-07-21T02:45:22;18.70;99.90
45339;DHT22;31071;51.478;5.710;2022-07-21T02:48:02;18.80;99.90
45339;DHT22;31071;51.478;5.710;2022-07-21T02:50:31;18.80;99.90
45339;DHT22;31071;51.478;5.710;2022-07-21T02:53:02;18.80;99.90
45339;DHT22;31071;51.478;5.710;2022-07-21T02:55:28;18.80;99.90
45339;DHT22;31071;51.478;5.710;2022-07-21T03:01:00;18.80;99.90
45339;DHT22;31071;51.478;5.710;2022-07-21T03:03:28;18.90;99.90
45339;DHT22;31071;51.478;5.710;2022-07-21T03:05:54;18.90;99.90
45339;DHT22;31071;51.478;5.710;2022-07-21T03:08:20;19.00;99.90
45339;DHT22;31071;51.478;5.710;2022-07-21T03:10:47;19.00;99.90
45339;DHT22;31071;51.478;5.710;2022-07-21T03:13:13;19.00;99.90
45339;DHT22;31071;51.478;5.710;2022-07-21T03:15:39;18.90;99.90
45339;DHT22;31071;51.478;5.710;2022-07-21T03:18:06;19.00;99.90
45339;DHT22;31071;51.478;5.710;2022-07-21T03:20:34;18.90;99.90
45339;DHT22;31071;51.478;5.710;2022-07-21T03:23:00;18.90;99.90
45339;DHT22;31071;51.478;5.710;2022-07-21T03:25:26;18.90;99.90
45339;DHT22;31071;51.478;5.710;2022-07-21T03:27:51;18.90;99.90
45339;DHT22;31071;51.478;5.710;2022-07-21T03:30:18;18.80;99.90
45339;DHT22;31071;51.478;5.710;2022-07-21T03:32:44;18.80;99.90
45339;DHT22;31071;51.478;5.710;2022-07-21T03:35:11;18.80;99.90
45339;DHT22;31071;51.478;5.710;2022-07-21T03:38:00;18.90;99.90
45339;DHT22;31071;51.478;5.710;2022-07-21T03:40:31;18.80;99.90
45339;DHT22;31071;51.478;5.710;2022-07-21T03:42:59;18.80;99.90
45339;DHT22;31071;51.478;5.710;2022-07-21T03:45:25;18.70;99.90
45339;DHT22;31071;51.478;5.710;2022-07-21T03:47:51;18.70;99.90
45339;DHT22;31071;51.478;5.710;2022-07-21T03:50:19;18.80;99.90
45339;DHT22;31071;51.478;5.710;2022-07-21T03:52:45;18.80;99.90
45339;DHT22;31071;51.478;5.710;2022-07-21T03:55:11;18.80;99.90
45339;DHT22;31071;51.478;5.710;2022-07-21T03:57:43;18.80;99.90
45339;DHT22;31071;51.478;5.710;2022-07-21T04:00:13;18.80;99.90
45339;DHT22;31071;51.478;5.710;2022-07-21T04:02:40;18.70;99.90
45339;DHT22;31071;51.478;5.710;2022-07-21T04:05:08;18.70;99.90
45339;DHT22;31071;51.478;5.710;2022-07-21T04:07:35;18.70;99.90
45339;DHT22;31071;51.478;5.710;2022-07-21T04:10:01;18.80;99.90
45339;DHT22;31071;51.478;5.710;2022-07-21T04:12:27;18.80;99.90
45339;DHT22;31071;51.478;5.710;2022-07-21T04:14:53;18.80;99.90
45339;DHT22;31071;51.478;5.710;2022-07-21T04:17:19;18.80;99.90
45339;DHT22;31071;51.478;5.710;2022-07-21T04:19:44;18.80;99.90
45339;DHT22;31071;51.478;5.710;2022-07-21T04:22:10;18.80;99.90
45339;DHT22;31071;51.478;5.710;2022-07-21T04:24:35;18.80;99.90
45339;DHT22;31071;51.478;5.710;2022-07-21T04:27:01;18.80;99.90
45339;DHT22;31071;51.478;5.710;2022-07-21T04:29:26;18.80;99.90
45339;DHT22;31071;51.478;5.710;2022-07-21T04:31:54;18.90;99.90
45339;DHT22;31071;51.478;5.710;2022-07-21T04:34:19;18.90;99.90
45339;DHT22;31071;51.478;5.710;2022-07-21T04:36:45;18.90;99.90
45339;DHT22;31071;51.478;5.710;2022-07-21T04:39:10;18.80;99.90
45339;DHT22;31071;51.478;5.710;2022-07-21T04:41:36;18.90;99.90
45339;DHT22;31071;51.478;5.710;2022-07-21T04:44:01;18.90;99.90
45339;DHT22;31071;51.478;5.710;2022-07-21T04:46:27;18.90;99.90
45339;DHT22;31071;51.478;5.710;2022-07-21T04:48:52;19.00;99.90
45339;DHT22;31071;51.478;5.710;2022-07-21T04:51:18;19.00;99.90
45339;DHT22;31071;51.478;5.710;2022-07-21T04:53:43;19.00;99.90
45339;DHT22;31071;51.478;5.710;2022-07-21T04:56:10;19.00;99.90
45339;DHT22;31071;51.478;5.710;2022-07-21T04:58:35;18.90;99.90
45339;DHT22;31071;51.478;5.710;2022-07-21T05:01:01;18.90;99.90
45339;DHT22;31071;51.478;5.710;2022-07-21T05:03:26;18.90;99.90
45339;DHT22;31071;51.478;5.710;2022-07-21T05:05:52;19.00;99.90
45339;DHT22;31071;51.478;5.710;2022-07-21T05:08:17;19.00;99.90
45339;DHT22;31071;51.478;5.710;2022-07-21T05:10:43;19.00;99.90
45339;DHT22;31071;51.478;5.710;2022-07-21T05:13:09;19.00;99.90
45339;DHT22;31071;51.478;5.710;2022-07-21T05:15:34;19.10;99.90
45339;DHT22;31071;51.478;5.710;2022-07-21T05:18:00;19.00;99.90
45339;DHT22;31071;51.478;5.710;2022-07-21T05:20:25;19.00;99.90
45339;DHT22;31071;51.478;5.710;2022-07-21T05:22:51;19.00;99.90
45339;DHT22;31071;51.478;5.710;2022-07-21T05:25:16;19.00;99.90
45339;DHT22;31071;51.478;5.710;2022-07-21T05:27:42;18.90;99.90
45339;DHT22;31071;51.478;5.710;2022-07-21T05:30:08;19.00;99.90
45339;DHT22;31071;51.478;5.710;2022-07-21T05:32:34;19.00;99.90
45339;DHT22;31071;51.478;5.710;2022-07-21T05:35:00;19.10;99.90
45339;DHT22;31071;51.478;5.710;2022-07-21T05:37:25;19.10;99.90
45339;DHT22;31071;51.478;5.710;2022-07-21T05:39:52;19.30;99.90
45339;DHT22;31071;51.478;5.710;2022-07-21T05:42:18;19.30;99.90
45339;DHT22;31071;51.478;5.710;2022-07-21T05:44:43;19.40;99.90
45339;DHT22;31071;51.478;5.710;2022-07-21T05:47:09;19.40;99.90
45339;DHT22;31071;51.478;5.710;2022-07-21T05:49:35;19.40;99.90
45339;DHT22;31071;51.478;5.710;2022-07-21T05:52:00;19.50;99.90
45339;DHT22;31071;51.478;5.710;2022-07-21T05:54:26;19.60;99.90
45339;DHT22;31071;51.478;5.710;2022-07-21T05:56:52;19.60;99.90
45339;DHT22;31071;51.478;5.710;2022-07-21T05:59:17;19.50;99.90
45339;DHT22;31071;51.478;5.710;2022-07-21T06:01:43;19.50;99.90
45339;DHT22;31071;51.478;5.710;2022-07-21T06:04:08;19.50;99.90
45339;DHT22;31071;51.478;5.710;2022-07-21T06:06:34;19.50;99.90
45339;DHT22;31071;51.478;5.710;2022-07-21T06:08:59;19.60;99.90
45339;DHT22;31071;51.478;5.710;2022-07-21T06:11:25;19.60;99.90
45339;DHT22;31071;51.478;5.710;2022-07-21T06:13:50;19.50;99.90
45339;DHT22;31071;51.478;5.710;2022-07-21T06:16:16;19.60;99.90
45339;DHT22;31071;51.478;5.710;2022-07-21T06:18:43;19.60;99.90
45339;DHT22;31071;51.478;5.710;2022-07-21T06:21:08;19.60;99.90
45339;DHT22;31071;51.478;5.710;2022-07-21T06:23:34;19.50;99.90
45339;DHT22;31071;51.478;5.710;2022-07-21T06:25:59;19.60;99.90
45339;DHT22;31071;51.478;5.710;2022-07-21T06:28:26;19.50;99.90
45339;DHT22;31071;51.478;5.710;2022-07-21T06:30:52;19.50;99.90
45339;DHT22;31071;51.478;5.710;2022-07-21T06:33:18;19.50;99.90
45339;DHT22;31071;51.478;5.710;2022-07-21T06:35:44;19.50;99.90
45339;DHT22;31071;51.478;5.710;2022-07-21T06:38:10;19.50;99.90
45339;DHT22;31071;51.478;5.710;2022-07-21T06:40:36;19.50;99.90
45339;DHT22;31071;51.478;5.710;2022-07-21T06:43:01;19.50;99.90
45339;DHT22;31071;51.478;5.710;2022-07-21T06:45:27;19.50;99.90
45339;DHT22;31071;51.478;5.710;2022-07-21T06:48:04;19.60;99.90
45339;DHT22;31071;51.478;5.710;2022-07-21T06:50:30;19.80;99.90
45339;DHT22;31071;51.478;5.710;2022-07-21T06:52:55;19.90;99.90
45339;DHT22;31071;51.478;5.710;2022-07-21T06:55:21;20.00;99.90
45339;DHT22;31071;51.478;5.710;2022-07-21T06:57:48;20.20;99.90
45339;DHT22;31071;51.478;5.710;2022-07-21T07:00:14;20.30;99.90
45339;DHT22;31071;51.478;5.710;2022-07-21T07:02:39;20.30;99.90
45339;DHT22;31071;51.478;5.710;2022-07-21T07:05:05;20.20;99.90
45339;DHT22;31071;51.478;5.710;2022-07-21T07:07:31;20.20;99.90
45339;DHT22;31071;51.478;5.710;2022-07-21T07:09:57;20.30;99.90
45339;DHT22;31071;51.478;5.710;2022-07-21T07:12:24;20.40;99.90
45339;DHT22;31071;51.478;5.710;2022-07-21T07:14:49;20.40;99.90
45339;DHT22;31071;51.478;5.710;2022-07-21T07:17:16;20.40;99.90
45339;DHT22;31071;51.478;5.710;2022-07-21T07:19:44;20.40;99.90
45339;DHT22;31071;51.478;5.710;2022-07-21T07:22:09;20.40;99.90
45339;DHT22;31071;51.478;5.710;2022-07-21T07:24:35;20.30;99.90
45339;DHT22;31071;51.478;5.710;2022-07-21T07:27:00;20.30;99.90
45339;DHT22;31071;51.478;5.710;2022-07-21T07:29:26;20.30;99.90
45339;DHT22;31071;51.478;5.710;2022-07-21T07:31:53;20.40;99.90
45339;DHT22;31071;51.478;5.710;2022-07-21T07:34:18;20.40;99.90
45339;DHT22;31071;51.478;5.710;2022-07-21T07:36:44;20.20;99.90
45339;DHT22;31071;51.478;5.710;2022-07-21T07:39:09;20.10;99.90
45339;DHT22;31071;51.478;5.710;2022-07-21T07:41:35;20.00;99.90
45339;DHT22;31071;51.478;5.710;2022-07-21T07:44:01;20.00;99.90
45339;DHT22;31071;51.478;5.710;2022-07-21T07:46:26;20.20;99.90
45339;DHT22;31071;51.478;5.710;2022-07-21T07:48:52;20.20;99.90
45339;DHT22;31071;51.478;5.710;2022-07-21T07:51:20;20.40;99.90
45339;DHT22;31071;51.478;5.710;2022-07-21T07:53:45;20.60;99.90
45339;DHT22;31071;51.478;5.710;2022-07-21T07:56:11;20.70;99.90
45339;DHT22;31071;51.478;5.710;2022-07-21T07:58:36;20.90;99.90
45339;DHT22;31071;51.478;5.710;2022-07-21T08:01:02;20.90;99.90
45339;DHT22;31071;51.478;5.710;2022-07-21T08:03:28;20.90;99.90
45339;DHT22;31071;51.478;5.710;2022-07-21T08:05:55;20.90;99.90
45339;DHT22;31071;51.478;5.710;2022-07-21T08:08:23;20.80;99.90
45339;DHT22;31071;51.478;5.710;2022-07-21T08:10:48;20.60;99.90
45339;DHT22;31071;51.478;5.710;2022-07-21T08:13:15;20.50;99.90
45339;DHT22;31071;51.478;5.710;2022-07-21T08:15:43;20.40;99.90
45339;DHT22;31071;51.478;5.710;2022-07-21T08:18:09;20.30;99.90
45339;DHT22;31071;51.478;5.710;2022-07-21T08:20:35;20.30;99.90
45339;DHT22;31071;51.478;5.710;2022-07-21T08:23:02;20.20;99.90
45339;DHT22;31071;51.478;5.710;2022-07-21T08:25:27;20.00;99.90
45339;DHT22;31071;51.478;5.710;2022-07-21T08:27:53;19.80;99.90
45339;DHT22;31071;51.478;5.710;2022-07-21T08:30:18;19.70;99.90
45339;DHT22;31071;51.478;5.710;2022-07-21T08:32:44;19.60;99.90
45339;DHT22;31071;51.478;5.710;2022-07-21T08:35:10;19.40;99.90
45339;DHT22;31071;51.478;5.710;2022-07-21T08:37:36;19.20;99.90
45339;DHT22;31071;51.478;5.710;2022-07-21T08:40:08;19.10;99.90
45339;DHT22;31071;51.478;5.710;2022-07-21T08:42:34;19.10;99.90
45339;DHT22;31071;51.478;5.710;2022-07-21T08:45:00;19.00;99.90
45339;DHT22;31071;51.478;5.710;2022-07-21T08:47:26;19.00;99.90
45339;DHT22;31071;51.478;5.710;2022-07-21T08:49:53;18.90;99.90
45339;DHT22;31071;51.478;5.710;2022-07-21T08:52:18;18.90;99.90
45339;DHT22;31071;51.478;5.710;2022-07-21T08:54:44;19.10;99.90
45339;DHT22;31071;51.478;5.710;2022-07-21T08:57:10;19.10;99.90
45339;DHT22;31071;51.478;5.710;2022-07-21T08:59:35;19.00;99.90
45339;DHT22;31071;51.478;5.710;2022-07-21T09:02:02;18.90;99.90
45339;DHT22;31071;51.478;5.710;2022-07-21T09:04:34;18.80;99.90
45339;DHT22;31071;51.478;5.710;2022-07-21T09:07:05;18.80;99.90
45339;DHT22;31071;51.478;5.710;2022-07-21T09:09:33;18.70;99.90
45339;DHT22;31071;51.478;5.710;2022-07-21T09:12:00;18.60;99.90
45339;DHT22;31071;51.478;5.710;2022-07-21T09:14:30;18.60;99.90
45339;DHT22;31071;51.478;5.710;2022-07-21T09:16:58;18.60;99.90
45339;DHT22;31071;51.478;5.710;2022-07-21T09:19:27;18.60;99.90
45339;DHT22;31071;51.478;5.710;2022-07-21T09:21:55;18.50;99.90
45339;DHT22;31071;51.478;5.710;2022-07-21T09:26:59;18.50;99.90
45339;DHT22;31071;51.478;5.710;2022-07-21T09:29:25;18.40;99.90
45339;DHT22;31071;51.478;5.710;2022-07-21T09:31:51;18.30;99.90
45339;DHT22;31071;51.478;5.710;2022-07-21T09:34:16;18.30;99.90
45339;DHT22;31071;51.478;5.710;2022-07-21T09:36:57;18.40;99.90
45339;DHT22;31071;51.478;5.710;2022-07-21T09:39:47;18.30;99.90
45339;DHT22;31071;51.478;5.710;2022-07-21T09:42:37;18.30;99.90
45339;DHT22;31071;51.478;5.710;2022-07-21T09:45:11;18.40;99.90
45339;DHT22;31071;51.478;5.710;2022-07-21T09:47:38;18.40;99.90
45339;DHT22;31071;51.478;5.710;2022-07-21T09:50:05;18.50;99.90
45339;DHT22;31071;51.478;5.710;2022-07-21T09:52:34;18.50;99.90
45339;DHT22;31071;51.478;5.710;2022-07-21T09:55:06;18.50;99.90
45339;DHT22;31071;51.478;5.710;2022-07-21T09:57:33;18.60;99.90
45339;DHT22;31071;51.478;5.710;2022-07-21T09:59:59;18.50;99.90
45339;DHT22;31071;51.478;5.710;2022-07-21T10:02:27;18.60;99.90
45339;DHT22;31071;51.478;5.710;2022-07-21T10:07:27;18.60;99.90
45339;DHT22;31071;51.478;5.710;2022-07-21T10:09:53;18.60;99.90
45339;DHT22;31071;51.478;5.710;2022-07-21T10:12:20;18.60;99.90
45339;DHT22;31071;51.478;5.710;2022-07-21T10:14:46;18.60;99.90
45339;DHT22;31071;51.478;5.710;2022-07-21T10:17:13;18.60;99.90
45339;DHT22;31071;51.478;5.710;2022-07-21T10:19:59;18.60;99.90
45339;DHT22;31071;51.478;5.710;2022-07-21T10:22:38;18.60;99.90
45339;DHT22;31071;51.478;5.710;2022-07-21T10:25:06;18.70;99.90
45339;DHT22;31071;51.478;5.710;2022-07-21T10:27:32;18.70;99.90
45339;DHT22;31071;51.478;5.710;2022-07-21T10:30:03;18.70;99.90
45339;DHT22;31071;51.478;5.710;2022-07-21T10:32:37;18.60;99.90
45339;DHT22;31071;51.478;5.710;2022-07-21T10:35:30;18.60;99.90
45339;DHT22;31071;51.478;5.710;2022-07-21T10:38:02;18.60;99.90
45339;DHT22;31071;51.478;5.710;2022-07-21T10:45:39;18.40;99.90
45339;DHT22;31071;51.478;5.710;2022-07-21T10:48:07;18.40;99.90
45339;DHT22;31071;51.478;5.710;2022-07-21T10:50:38;18.40;99.90
45339;DHT22;31071;51.478;5.710;2022-07-21T10:55:34;18.40;99.90
45339;DHT22;31071;51.478;5.710;2022-07-21T10:58:27;18.50;99.90
45339;DHT22;31071;51.478;5.710;2022-07-21T11:01:04;18.50;99.90
45339;DHT22;31071;51.478;5.710;2022-07-21T11:03:35;18.50;99.90
45339;DHT22;31071;51.478;5.710;2022-07-21T11:08:47;18.70;99.90
45339;DHT22;31071;51.478;5.710;2022-07-21T11:11:16;18.60;99.90
45339;DHT22;31071;51.478;5.710;2022-07-21T11:14:02;18.60;99.90
45339;DHT22;31071;51.478;5.710;2022-07-21T11:19:47;18.80;99.90
45339;DHT22;31071;51.478;5.710;2022-07-21T11:22:27;18.80;99.90
45339;DHT22;31071;51.478;5.710;2022-07-21T11:24:57;18.90;99.90
45339;DHT22;31071;51.478;5.710;2022-07-21T11:27:24;18.80;99.90
45339;DHT22;31071;51.478;5.710;2022-07-21T11:29:54;18.70;99.90
45339;DHT22;31071;51.478;5.710;2022-07-21T11:32:20;18.70;99.90
45339;DHT22;31071;51.478;5.710;2022-07-21T11:37:27;18.60;99.90
45339;DHT22;31071;51.478;5.710;2022-07-21T11:39:52;18.50;99.90
45339;DHT22;31071;51.478;5.710;2022-07-21T11:42:18;18.50;99.90
45339;DHT22;31071;51.478;5.710;2022-07-21T11:44:44;18.40;99.90
45339;DHT22;31071;51.478;5.710;2022-07-21T11:47:12;18.40;99.90
45339;DHT22;31071;51.478;5.710;2022-07-21T11:49:38;18.30;99.90
45339;DHT22;31071;51.478;5.710;2022-07-21T11:52:06;18.30;99.90
45339;DHT22;31071;51.478;5.710;2022-07-21T11:57:01;18.20;99.90
45339;DHT22;31071;51.478;5.710;2022-07-21T11:59:27;18.20;99.90
45339;DHT22;31071;51.478;5.710;2022-07-21T12:01:59;18.30;99.90
45339;DHT22;31071;51.478;5.710;2022-07-21T12:04:34;18.30;99.90
45339;DHT22;31071;51.478;5.710;2022-07-21T12:07:00;18.10;99.90
45339;DHT22;31071;51.478;5.710;2022-07-21T12:09:26;18.10;99.90
45339;DHT22;31071;51.478;5.710;2022-07-21T12:11:52;18.20;99.90
45339;DHT22;31071;51.478;5.710;2022-07-21T12:14:17;18.00;99.90
45339;DHT22;31071;51.478;5.710;2022-07-21T12:16:53;18.00;99.90
45339;DHT22;31071;51.478;5.710;2022-07-21T12:19:19;18.10;99.90
45339;DHT22;31071;51.478;5.710;2022-07-21T12:21:51;18.10;99.90
45339;DHT22;31071;51.478;5.710;2022-07-21T12:24:18;18.00;99.90
45339;DHT22;31071;51.478;5.710;2022-07-21T12:26:45;17.90;99.90
45339;DHT22;31071;51.478;5.710;2022-07-21T12:29:27;17.90;99.90
45339;DHT22;31071;51.478;5.710;2022-07-21T12:31:53;17.90;99.90
45339;DHT22;31071;51.478;5.710;2022-07-21T12:34:19;17.90;99.90
45339;DHT22;31071;51.478;5.710;2022-07-21T12:36:45;17.80;99.90
45339;DHT22;31071;51.478;5.710;2022-07-21T12:39:16;17.80;99.90
45339;DHT22;31071;51.478;5.710;2022-07-21T12:42:00;17.90;99.90
45339;DHT22;31071;51.478;5.710;2022-07-21T12:44:26;17.90;99.90
45339;DHT22;31071;51.478;5.710;2022-07-21T13:07:08;17.90;99.90
45339;DHT22;31071;51.478;5.710;2022-07-21T13:09:34;18.10;99.90
45339;DHT22;31071;51.478;5.710;2022-07-21T13:11:59;18.20;99.90
45339;DHT22;31071;51.478;5.710;2022-07-21T13:14:25;18.20;99.90
45339;DHT22;31071;51.478;5.710;2022-07-21T13:16:51;18.30;99.90
45339;DHT22;31071;51.478;5.710;2022-07-21T13:19:18;18.20;99.90
45339;DHT22;31071;51.478;5.710;2022-07-21T13:21:43;18.20;99.90
45339;DHT22;31071;51.478;5.710;2022-07-21T13:24:09;18.30;99.90
45339;DHT22;31071;51.478;5.710;2022-07-21T13:26:34;18.30;99.90
45339;DHT22;31071;51.478;5.710;2022-07-21T13:29:00;18.50;99.90
45339;DHT22;31071;51.478;5.710;2022-07-21T13:31:27;18.40;99.90
45339;DHT22;31071;51.478;5.710;2022-07-21T13:33:53;18.40;99.90
45339;DHT22;31071;51.478;5.710;2022-07-21T13:36:19;18.50;99.90
45339;DHT22;31071;51.478;5.710;2022-07-21T13:38:44;18.50;99.90
45339;DHT22;31071;51.478;5.710;2022-07-21T13:41:10;18.50;99.90
45339;DHT22;31071;51.478;5.710;2022-07-21T13:43:36;18.60;99.90
45339;DHT22;31071;51.478;5.710;2022-07-21T13:46:02;18.70;99.90
45339;DHT22;31071;51.478;5.710;2022-07-21T13:48:27;18.70;99.90
45339;DHT22;31071;51.478;5.710;2022-07-21T13:50:53;18.80;99.90
45339;DHT22;31071;51.478;5.710;2022-07-21T13:53:18;18.80;99.90
45339;DHT22;31071;51.478;5.710;2022-07-21T13:55:44;18.80;99.90
45339;DHT22;31071;51.478;5.710;2022-07-21T13:58:42;18.90;99.90
45339;DHT22;31071;51.478;5.710;2022-07-21T14:01:09;18.90;99.90
45339;DHT22;31071;51.478;5.710;2022-07-21T14:03:36;18.70;99.90
45339;DHT22;31071;51.478;5.710;2022-07-21T14:06:02;18.70;99.90
45339;DHT22;31071;51.478;5.710;2022-07-21T14:08:28;18.60;99.90
45339;DHT22;31071;51.478;5.710;2022-07-21T14:10:54;18.60;99.90
45339;DHT22;31071;51.478;5.710;2022-07-21T14:13:20;18.70;99.90
45339;DHT22;31071;51.478;5.710;2022-07-21T14:15:45;18.70;99.90
45339;DHT22;31071;51.478;5.710;2022-07-21T14:18:11;18.70;99.90
45339;DHT22;31071;51.478;5.710;2022-07-21T14:20:37;18.80;99.90
45339;DHT22;31071;51.478;5.710;2022-07-21T14:23:03;18.80;99.90
45339;DHT22;31071;51.478;5.710;2022-07-21T14:25:29;18.80;99.90
45339;DHT22;31071;51.478;5.710;2022-07-21T14:28:09;18.80;99.90
45339;DHT22;31071;51.478;5.710;2022-07-21T14:30:34;18.80;99.90
45339;DHT22;31071;51.478;5.710;2022-07-21T14:33:00;18.90;99.90
45339;DHT22;31071;51.478;5.710;2022-07-21T14:35:26;18.90;99.90
45339;DHT22;31071;51.478;5.710;2022-07-21T14:37:53;18.80;99.90
45339;DHT22;31071;51.478;5.710;2022-07-21T14:40:19;18.80;99.90
45339;DHT22;31071;51.478;5.710;2022-07-21T14:42:45;18.90;99.90
45339;DHT22;31071;51.478;5.710;2022-07-21T14:45:13;18.90;99.90
45339;DHT22;31071;51.478;5.710;2022-07-21T14:47:39;18.80;99.90
45339;DHT22;31071;51.478;5.710;2022-07-21T14:50:05;18.70;99.90
45339;DHT22;31071;51.478;5.710;2022-07-21T14:52:31;18.60;99.90
45339;DHT22;31071;51.478;5.710;2022-07-21T14:54:56;18.50;99.90
45339;DHT22;31071;51.478;5.710;2022-07-21T14:57:22;18.40;99.90
45339;DHT22;31071;51.478;5.710;2022-07-21T14:59:48;18.40;99.90
45339;DHT22;31071;51.478;5.710;2022-07-21T15:02:13;18.40;99.90
45339;DHT22;31071;51.478;5.710;2022-07-21T15:04:39;18.50;99.90
45339;DHT22;31071;51.478;5.710;2022-07-21T15:07:04;18.50;99.90
45339;DHT22;31071;51.478;5.710;2022-07-21T15:09:30;18.50;99.90
45339;DHT22;31071;51.478;5.710;2022-07-21T15:11:56;18.40;99.90
45339;DHT22;31071;51.478;5.710;2022-07-21T15:14:21;18.40;99.90
45339;DHT22;31071;51.478;5.710;2022-07-21T15:16:47;18.30;99.90
45339;DHT22;31071;51.478;5.710;2022-07-21T15:19:12;18.30;99.90
45339;DHT22;31071;51.478;5.710;2022-07-21T15:21:38;18.30;99.90
45339;DHT22;31071;51.478;5.710;2022-07-21T15:24:04;18.20;99.90
45339;DHT22;31071;51.478;5.710;2022-07-21T15:26:29;18.20;99.90
45339;DHT22;31071;51.478;5.710;2022-07-21T15:28:55;18.20;99.90
45339;DHT22;31071;51.478;5.710;2022-07-21T15:31:21;18.30;99.90
45339;DHT22;31071;51.478;5.710;2022-07-21T15:33:46;18.30;99.90
45339;DHT22;31071;51.478;5.710;2022-07-21T15:36:12;18.40;99.90
45339;DHT22;31071;51.478;5.710;2022-07-21T15:38:37;18.40;99.90
45339;DHT22;31071;51.478;5.710;2022-07-21T15:41:04;18.40;99.90
45339;DHT22;31071;51.478;5.710;2022-07-21T15:43:30;18.40;99.90
45339;DHT22;31071;51.478;5.710;2022-07-21T15:45:56;18.40;99.90
45339;DHT22;31071;51.478;5.710;2022-07-21T15:48:21;18.30;99.90
45339;DHT22;31071;51.478;5.710;2022-07-21T15:50:47;18.40;99.90
45339;DHT22;31071;51.478;5.710;2022-07-21T15:53:12;18.30;99.90
45339;DHT22;31071;51.478;5.710;2022-07-21T15:55:38;18.30;99.90
45339;DHT22;31071;51.478;5.710;2022-07-21T15:58:11;18.30;99.90
45339;DHT22;31071;51.478;5.710;2022-07-21T16:00:36;18.30;99.90
45339;DHT22;31071;51.478;5.710;2022-07-21T16:03:02;18.30;99.90
45339;DHT22;31071;51.478;5.710;2022-07-21T16:05:27;18.30;99.90
45339;DHT22;31071;51.478;5.710;2022-07-21T16:07:54;18.30;99.90
45339;DHT22;31071;51.478;5.710;2022-07-21T16:10:21;18.30;99.90
45339;DHT22;31071;51.478;5.710;2022-07-21T16:12:48;18.40;99.90
45339;DHT22;31071;51.478;5.710;2022-07-21T16:15:15;18.40;99.90
45339;DHT22;31071;51.478;5.710;2022-07-21T16:17:41;18.30;99.90